< < Back
Terminal Aerodrome Forecast


Current Version              Previous Versions:   1  2  3  4  5  6  7  8  9  

Terminal Aerodrome Forecast

406
FTUS42 KTAE 282335 AAA
TAFABY
TAF AMD
KABY 282335Z 2900/2924 26007KT P6SM VCTS BKN050CB
      TEMPO 2900/2902 3SM TS BKN040CB
     FM290300 VRB03KT P6SM BKN250
     FM292000 31006KT P6SM VCTS BKN050CB=

Latest METAR

872
SAUS70 KWBC 290700 RRM
MTRABY
METAR KABY 290653Z AUTO 28005KT 7SM CLR 23/22 A2996 RMK AO2 SLP144
T02330222


USA.gov is the U.S. government's official web portal to all federal, state and local government web resources and services.